createdAt,value
2018-04-29T00:00:29.766Z,18.30
2018-04-29T00:02:56.334Z,17.40
2018-04-29T00:05:22.818Z,17.37
2018-04-29T00:07:49.322Z,17.33
2018-04-29T00:10:15.840Z,16.60
2018-04-29T00:12:42.417Z,16.57
2018-04-29T00:15:09.756Z,15.70
2018-04-29T00:17:36.257Z,16.27
2018-04-29T00:20:02.788Z,15.57
2018-04-29T00:22:29.300Z,16.93
2018-04-29T00:24:55.832Z,18.13
2018-04-29T00:27:23.966Z,18.10
2018-04-29T00:29:50.479Z,16.53
2018-04-29T00:32:19.939Z,16.63
2018-04-29T00:34:46.494Z,16.80
2018-04-29T00:37:12.981Z,16.97
2018-04-29T00:39:39.511Z,17.57
2018-04-29T00:42:06.069Z,15.70
2018-04-29T00:44:32.581Z,16.60
2018-04-29T00:46:59.098Z,16.30
2018-04-29T00:49:25.654Z,17.23
2018-04-29T00:52:01.270Z,18.30
2018-04-29T00:54:27.756Z,16.77
2018-04-29T00:56:55.297Z,16.70
2018-04-29T00:59:22.012Z,16.73
2018-04-29T01:01:48.466Z,16.97
2018-04-29T01:04:15.336Z,19.33
2018-04-29T01:06:42.873Z,18.80
2018-04-29T01:09:09.384Z,18.70
2018-04-29T01:11:35.850Z,18.23
2018-04-29T01:14:02.332Z,18.70
2018-04-29T01:16:29.471Z,19.10
2018-04-29T01:18:56.698Z,17.13
2018-04-29T01:21:23.254Z,16.90
2018-04-29T01:23:50.559Z,17.83
2018-04-29T01:26:17.179Z,17.13
2018-04-29T01:28:43.719Z,17.23
2018-04-29T01:31:10.363Z,18.27
2018-04-29T01:33:36.864Z,18.30
2018-04-29T01:36:04.248Z,17.23
2018-04-29T01:38:30.786Z,17.23
2018-04-29T01:40:57.263Z,17.83
2018-04-29T01:43:23.775Z,16.50
2018-04-29T01:45:50.363Z,17.03
2018-04-29T01:48:17.640Z,17.60
2018-04-29T01:50:44.189Z,16.63
2018-04-29T01:53:10.685Z,17.43
2018-04-29T01:55:37.928Z,16.83
2018-04-29T01:58:04.502Z,16.33
2018-04-29T02:00:31.818Z,16.50
2018-04-29T02:02:58.389Z,17.27
2018-04-29T02:05:24.948Z,17.53
2018-04-29T02:07:52.274Z,16.70
2018-04-29T02:10:18.831Z,17.03
2018-04-29T02:12:45.458Z,19.17
2018-04-29T02:15:12.004Z,18.27
2018-04-29T02:17:38.593Z,18.20
2018-04-29T02:20:05.150Z,17.23
2018-04-29T02:22:31.642Z,17.20
2018-04-29T02:24:58.246Z,19.47
2018-04-29T02:27:24.866Z,19.13
2018-04-29T02:29:51.437Z,17.63
2018-04-29T02:32:18.639Z,17.40
2018-04-29T02:34:45.908Z,16.93
2018-04-29T02:37:12.430Z,17.20
2018-04-29T02:39:39.517Z,18.73
2018-04-29T02:42:06.070Z,19.03
2018-04-29T02:44:32.719Z,18.03
2018-04-29T02:46:59.352Z,18.70
2018-04-29T02:49:26.017Z,19.33
2018-04-29T02:51:52.662Z,20.40
2018-04-29T02:54:19.939Z,20.63
2018-04-29T02:56:46.553Z,22.93
2018-04-29T02:59:13.099Z,24.87
2018-04-29T03:01:40.383Z,20.87
2018-04-29T03:04:06.912Z,21.30
2018-04-29T03:06:33.567Z,20.33
2018-04-29T03:09:04.706Z,19.87
2018-04-29T03:11:31.263Z,18.70
2018-04-29T03:13:57.766Z,19.77
2018-04-29T03:16:24.266Z,20.03
2018-04-29T03:18:52.208Z,20.93
2018-04-29T03:21:18.719Z,19.77
2018-04-29T03:23:45.218Z,20.50
2018-04-29T03:26:12.689Z,21.10
2018-04-29T03:28:39.352Z,21.10
2018-04-29T03:31:06.950Z,21.23
2018-04-29T03:33:33.448Z,22.10
2018-04-29T03:36:00.718Z,23.73
2018-04-29T03:38:35.569Z,24.23
2018-04-29T03:41:03.028Z,22.83
2018-04-29T03:43:29.614Z,23.47
2018-04-29T03:45:56.165Z,22.50
2018-04-29T03:48:22.796Z,22.17
2018-04-29T03:50:50.036Z,23.97
2018-04-29T03:53:16.558Z,24.40
2018-04-29T03:55:43.187Z,24.30
2018-04-29T03:58:22.499Z,25.43
2018-04-29T04:01:02.036Z,23.63
2018-04-29T04:03:40.721Z,25.60
2018-04-29T04:06:07.288Z,26.03
2018-04-29T04:08:33.884Z,26.17
2018-04-29T04:11:00.412Z,25.67
2018-04-29T04:13:26.913Z,26.80
2018-04-29T04:15:54.327Z,27.30
2018-04-29T04:18:20.826Z,26.23
2018-04-29T04:20:48.096Z,25.70
2018-04-29T04:23:14.694Z,26.90
2018-04-29T04:25:41.944Z,27.60
2018-04-29T04:28:08.522Z,27.50
2018-04-29T04:30:35.128Z,28.63
2018-04-29T04:33:02.558Z,26.57
2018-04-29T04:35:29.116Z,28.77
2018-04-29T04:37:56.415Z,27.33
2018-04-29T04:40:23.033Z,28.60
2018-04-29T04:42:49.549Z,27.13
2018-04-29T04:45:17.589Z,28.07
2018-04-29T04:47:44.088Z,28.70
2018-04-29T04:50:10.743Z,29.07
2018-04-29T04:52:37.445Z,28.57
2018-04-29T04:55:04.871Z,28.63
2018-04-29T04:57:31.445Z,29.03
2018-04-29T04:59:58.133Z,30.43
2018-04-29T05:02:24.710Z,28.93
2018-04-29T05:04:51.353Z,29.63
2018-04-29T05:07:18.762Z,28.63
2018-04-29T05:09:45.344Z,28.93
2018-04-29T05:12:11.919Z,29.40
2018-04-29T05:14:38.593Z,30.07
2018-04-29T05:17:06.711Z,29.67
2018-04-29T05:19:33.419Z,30.80
2018-04-29T05:22:00.755Z,30.93
2018-04-29T05:24:27.457Z,29.47
2018-04-29T05:26:55.034Z,29.63
2018-04-29T05:29:21.655Z,31.77
2018-04-29T05:31:48.300Z,30.00
2018-04-29T05:34:15.157Z,31.73
2018-04-29T05:36:41.705Z,32.03
2018-04-29T05:39:08.263Z,31.57
2018-04-29T05:41:35.566Z,32.90
2018-04-29T05:44:02.152Z,33.80
2018-04-29T05:46:28.690Z,31.97
2018-04-29T05:48:55.212Z,32.90
2018-04-29T05:51:21.769Z,32.30
2018-04-29T05:53:48.408Z,33.37
2018-04-29T06:06:00.875Z,32.50
2018-04-29T06:08:29.878Z,33.53
2018-04-29T06:10:57.310Z,31.83
2018-04-29T06:13:23.851Z,34.17
2018-04-29T06:15:50.431Z,34.73
2018-04-29T06:18:17.112Z,37.37
2018-04-29T06:20:43.735Z,33.63
2018-04-29T06:23:10.390Z,33.90
2018-04-29T06:25:37.364Z,36.53
2018-04-29T06:28:04.003Z,34.37
2018-04-29T06:30:32.217Z,34.83
2018-04-29T06:32:58.778Z,34.23
2018-04-29T06:35:25.266Z,36.30
2018-04-29T06:37:52.554Z,38.07
2018-04-29T06:40:19.160Z,38.13
2018-04-29T06:42:45.783Z,35.70
2018-04-29T06:54:57.590Z,37.60
2018-04-29T06:57:24.156Z,38.87
2018-04-29T06:59:50.771Z,38.43
2018-04-29T07:02:17.429Z,36.57
2018-04-29T07:04:44.666Z,37.80
2018-04-29T07:07:14.238Z,34.50
2018-04-29T07:09:40.681Z,36.07
2018-04-29T07:12:07.119Z,36.47
2018-04-29T07:14:33.550Z,35.40
2018-04-29T07:16:59.969Z,36.83
2018-04-29T07:19:27.163Z,39.50
2018-04-29T07:21:53.603Z,41.13
2018-04-29T07:24:20.027Z,38.07
2018-04-29T07:26:46.451Z,38.37
2018-04-29T07:29:12.857Z,35.43
2018-04-29T07:31:39.295Z,36.87
2018-04-29T07:34:05.827Z,38.60
2018-04-29T07:36:32.415Z,36.93
2018-04-29T07:38:59.065Z,37.70
2018-04-29T07:41:26.427Z,35.77
2018-04-29T07:43:52.916Z,37.47
2018-04-29T07:46:19.547Z,40.97
2018-04-29T07:48:46.078Z,36.57
2018-04-29T07:51:13.531Z,39.20
2018-04-29T07:53:40.147Z,37.00
2018-04-29T07:56:07.543Z,39.63
2018-04-29T07:58:34.102Z,37.23
2018-04-29T08:01:00.631Z,38.07
2018-04-29T08:03:27.214Z,40.33
2018-04-29T08:05:53.793Z,40.57
2018-04-29T08:08:23.728Z,38.57
2018-04-29T08:10:50.372Z,37.57
2018-04-29T08:13:17.635Z,39.27
2018-04-29T08:15:44.570Z,38.80
2018-04-29T08:18:11.990Z,38.43
2018-04-29T08:20:38.514Z,37.93
2018-04-29T08:23:05.006Z,39.37
2018-04-29T08:25:32.291Z,39.23
2018-04-29T08:27:59.482Z,38.07
2018-04-29T08:30:25.926Z,37.73
2018-04-29T08:32:52.381Z,37.90
2018-04-29T08:35:18.834Z,38.40
2018-04-29T08:37:45.264Z,37.90
2018-04-29T08:40:11.711Z,40.23
2018-04-29T08:42:38.966Z,36.93
2018-04-29T08:45:05.393Z,37.63
2018-04-29T08:47:32.562Z,39.30
2018-04-29T08:49:59.006Z,37.57
2018-04-29T08:52:25.445Z,39.17
2018-04-29T08:54:51.887Z,37.20
2018-04-29T08:57:18.347Z,38.60
2018-04-29T08:59:44.788Z,38.47
2018-04-29T09:02:11.224Z,37.13
2018-04-29T09:04:37.704Z,37.10
2018-04-29T09:07:04.171Z,39.07
2018-04-29T09:09:30.607Z,37.03
2018-04-29T09:11:57.069Z,38.10
2018-04-29T09:14:24.264Z,39.73
2018-04-29T09:16:50.713Z,38.93
2018-04-29T09:19:17.169Z,38.03
2018-04-29T09:21:43.639Z,37.27
2018-04-29T09:24:10.053Z,36.70
2018-04-29T09:26:36.509Z,34.77
2018-04-29T09:29:03.737Z,38.60
2018-04-29T09:31:30.205Z,91.83
2018-04-29T09:33:56.649Z,35.70
2018-04-29T09:36:23.073Z,35.23
2018-04-29T09:38:49.555Z,37.77
2018-04-29T09:41:15.986Z,35.47
2018-04-29T09:43:42.553Z,36.60
2018-04-29T09:46:09.641Z,36.93
2018-04-29T09:48:36.106Z,35.10
2018-04-29T09:51:02.581Z,35.43
2018-04-29T09:53:30.075Z,36.83
2018-04-29T09:55:56.510Z,37.53
2018-04-29T09:58:23.974Z,34.40
2018-04-29T10:01:01.348Z,36.20
2018-04-29T10:03:27.814Z,37.13
2018-04-29T10:05:54.292Z,35.27
2018-04-29T10:08:22.706Z,34.83
2018-04-29T10:10:49.147Z,35.10
2018-04-29T10:13:15.576Z,36.67
2018-04-29T10:15:42.040Z,33.90
2018-04-29T10:18:08.605Z,35.63
2018-04-29T10:20:35.816Z,37.27
2018-04-29T10:23:02.246Z,35.70
2018-04-29T10:25:28.706Z,36.33
2018-04-29T10:27:55.140Z,33.70
2018-04-29T10:30:22.340Z,35.87
2018-04-29T10:32:48.858Z,34.40
2018-04-29T10:35:15.236Z,34.60
2018-04-29T10:37:41.899Z,36.27
2018-04-29T10:40:08.323Z,36.30
2018-04-29T10:42:34.808Z,34.33
2018-04-29T10:45:01.227Z,31.77
2018-04-29T10:47:28.812Z,32.70
2018-04-29T10:49:55.261Z,31.37
2018-04-29T10:52:21.744Z,31.77
2018-04-29T10:54:48.172Z,29.93
2018-04-29T10:57:15.389Z,30.90
2018-04-29T10:59:41.882Z,30.80
2018-04-29T11:02:08.394Z,26.47
2018-04-29T11:04:34.872Z,27.97
2018-04-29T11:07:03.392Z,27.77
2018-04-29T11:09:29.936Z,27.37
2018-04-29T11:11:56.384Z,28.23
2018-04-29T11:14:22.884Z,24.47
2018-04-29T11:16:53.433Z,25.07
2018-04-29T11:19:19.977Z,24.87
2018-04-29T11:21:46.516Z,24.67
2018-04-29T11:24:13.848Z,25.23
2018-04-29T11:26:40.520Z,23.43
2018-04-29T11:29:07.100Z,23.30
2018-04-29T11:31:33.677Z,22.97
2018-04-29T11:34:00.264Z,27.73
2018-04-29T11:36:26.894Z,23.57
2018-04-29T11:38:53.424Z,25.03
2018-04-29T11:41:19.979Z,27.10
2018-04-29T11:43:46.554Z,23.60
2018-04-29T11:46:13.112Z,22.80
2018-04-29T11:48:41.412Z,22.10
2018-04-29T11:51:07.942Z,22.10
2018-04-29T11:53:35.243Z,23.47
2018-04-29T11:56:01.790Z,22.27
2018-04-29T11:58:30.498Z,22.30
2018-04-29T12:00:57.185Z,21.33
2018-04-29T12:03:23.722Z,22.33
2018-04-29T12:05:50.404Z,21.53
2018-04-29T12:08:17.019Z,22.33
2018-04-29T12:10:43.561Z,21.53
2018-04-29T12:13:10.189Z,20.77
2018-04-29T12:15:36.749Z,21.90
2018-04-29T12:18:03.338Z,21.87
2018-04-29T12:20:30.001Z,20.83
2018-04-29T12:22:56.527Z,23.20
2018-04-29T12:25:24.015Z,21.77
2018-04-29T12:27:52.147Z,21.67
2018-04-29T12:30:18.845Z,24.13
2018-04-29T12:32:46.397Z,22.27
2018-04-29T12:35:13.024Z,21.80
2018-04-29T12:37:40.768Z,20.50
2018-04-29T12:40:07.339Z,21.03
2018-04-29T12:42:34.065Z,21.73
2018-04-29T12:45:00.682Z,22.50
2018-04-29T12:47:32.091Z,20.70
2018-04-29T12:49:59.973Z,22.97
2018-04-29T12:52:27.173Z,22.53
2018-04-29T12:54:53.751Z,21.23
2018-04-29T12:57:20.453Z,20.30
2018-04-29T12:59:47.775Z,21.33
2018-04-29T13:02:14.212Z,20.97
2018-04-29T13:04:40.638Z,21.93
2018-04-29T13:07:08.117Z,22.60
2018-04-29T13:09:34.543Z,22.77
2018-04-29T13:12:00.985Z,22.87
2018-04-29T13:14:27.402Z,22.37
2018-04-29T13:16:54.053Z,22.43
2018-04-29T13:19:20.529Z,22.80
2018-04-29T13:21:47.739Z,23.80
2018-04-29T13:24:14.149Z,22.37
2018-04-29T13:26:40.576Z,24.00
2018-04-29T13:29:07.006Z,22.60
2018-04-29T13:31:33.452Z,23.37
2018-04-29T13:33:59.886Z,23.97
2018-04-29T13:36:26.326Z,23.20
2018-04-29T13:38:59.137Z,23.53
2018-04-29T13:41:25.570Z,23.30
2018-04-29T13:43:52.016Z,23.60
2018-04-29T13:46:19.222Z,23.83
2018-04-29T13:48:49.786Z,24.87
2018-04-29T13:51:16.263Z,24.37
2018-04-29T13:53:43.096Z,25.03
2018-04-29T13:56:10.313Z,23.47
2018-04-29T13:58:38.886Z,24.07
2018-04-29T14:01:08.599Z,24.70
2018-04-29T14:03:42.726Z,25.23
2018-04-29T14:06:09.166Z,23.90
2018-04-29T14:08:35.685Z,25.07
2018-04-29T14:11:02.164Z,25.00
2018-04-29T14:13:28.618Z,24.17
2018-04-29T14:15:55.061Z,25.70
2018-04-29T14:18:21.503Z,24.53
2018-04-29T14:20:51.221Z,24.67
2018-04-29T14:23:18.464Z,23.67
2018-04-29T14:25:45.614Z,25.10
2018-04-29T14:28:16.486Z,26.13
2018-04-29T14:30:42.927Z,25.97
2018-04-29T14:33:09.372Z,26.23
2018-04-29T14:35:36.548Z,26.07
2018-04-29T14:38:04.061Z,26.90
2018-04-29T14:40:30.637Z,26.20
2018-04-29T14:42:57.091Z,27.07
2018-04-29T14:45:23.559Z,27.37
2018-04-29T14:47:50.003Z,26.00
2018-04-29T14:50:16.439Z,25.70
2018-04-29T14:52:42.902Z,25.33
2018-04-29T14:55:10.077Z,25.90
2018-04-29T14:57:36.545Z,26.83
2018-04-29T15:00:03.013Z,24.97
2018-04-29T15:02:29.566Z,25.30
2018-04-29T15:04:56.443Z,25.87
2018-04-29T15:07:26.109Z,24.70
2018-04-29T15:09:53.297Z,27.10
2018-04-29T15:12:19.763Z,27.03
2018-04-29T15:14:46.249Z,27.23
2018-04-29T15:17:12.869Z,25.40
2018-04-29T15:19:49.011Z,26.23
2018-04-29T15:22:16.221Z,26.80
2018-04-29T15:24:42.655Z,26.73
2018-04-29T15:27:09.239Z,26.70
2018-04-29T15:29:36.457Z,26.60
2018-04-29T15:32:02.950Z,26.73
2018-04-29T15:34:29.402Z,26.57
2018-04-29T15:36:55.854Z,26.80
2018-04-29T15:39:22.462Z,27.00
2018-04-29T15:41:49.052Z,26.33
2018-04-29T15:44:15.564Z,28.17
2018-04-29T15:46:42.959Z,26.87
2018-04-29T15:49:09.407Z,26.83
2018-04-29T15:51:35.858Z,25.73
2018-04-29T15:54:02.325Z,27.37
2018-04-29T15:56:29.631Z,27.43
2018-04-29T15:58:56.202Z,27.17
2018-04-29T16:01:22.697Z,28.53
2018-04-29T16:03:49.131Z,31.57
2018-04-29T16:06:15.697Z,27.43
2018-04-29T16:08:42.160Z,28.23
2018-04-29T16:11:09.368Z,29.57
2018-04-29T16:13:35.840Z,29.40
2018-04-29T16:16:02.315Z,30.77
2018-04-29T16:18:33.099Z,29.97
2018-04-29T16:21:00.301Z,27.53
2018-04-29T16:23:26.773Z,28.67
2018-04-29T16:25:53.280Z,28.27
2018-04-29T16:28:19.865Z,27.87
2018-04-29T16:30:47.051Z,28.43
2018-04-29T16:33:13.525Z,29.10
2018-04-29T16:35:40.004Z,28.90
2018-04-29T16:38:07.289Z,27.67
2018-04-29T16:40:34.432Z,27.60
2018-04-29T16:43:00.879Z,26.63
2018-04-29T16:45:27.363Z,26.47
2018-04-29T16:48:01.757Z,27.40
2018-04-29T16:50:28.203Z,27.17
2018-04-29T16:52:55.433Z,28.00
2018-04-29T16:55:21.901Z,26.90
2018-04-29T16:57:49.166Z,27.33
2018-04-29T17:00:16.346Z,27.27
2018-04-29T17:02:42.784Z,27.40
2018-04-29T17:05:09.252Z,28.37
2018-04-29T17:07:35.708Z,27.50
2018-04-29T17:10:02.943Z,27.20
2018-04-29T17:12:29.399Z,28.60
2018-04-29T17:14:56.619Z,28.00
2018-04-29T17:17:23.271Z,28.23
2018-04-29T17:19:49.726Z,28.17
2018-04-29T17:22:16.952Z,28.87
2018-04-29T17:24:43.387Z,29.20
2018-04-29T17:27:13.100Z,29.87
2018-04-29T17:29:39.546Z,29.77
2018-04-29T17:32:06.794Z,30.27
2018-04-29T17:34:33.247Z,31.13
2018-04-29T17:37:06.671Z,31.37
2018-04-29T17:39:33.128Z,31.33
2018-04-29T17:41:59.587Z,32.03
2018-04-29T17:44:26.021Z,32.30
2018-04-29T17:46:54.629Z,32.17
2018-04-29T17:49:21.897Z,33.77
2018-04-29T17:51:48.365Z,34.13
2018-04-29T17:54:14.843Z,35.33
2018-04-29T17:56:42.075Z,33.87
2018-04-29T17:59:08.512Z,35.60
2018-04-29T18:01:34.998Z,35.63
2018-04-29T18:04:01.509Z,36.83
2018-04-29T18:06:28.023Z,35.80
2018-04-29T18:08:54.457Z,37.50
2018-04-29T18:11:20.960Z,37.53
2018-04-29T18:13:47.414Z,38.53
2018-04-29T18:16:13.863Z,39.20
2018-04-29T18:18:45.025Z,38.60
2018-04-29T18:21:12.256Z,39.27
2018-04-29T18:23:38.682Z,37.43
2018-04-29T18:26:05.152Z,37.90
2018-04-29T18:28:36.054Z,38.70
2018-04-29T18:31:02.520Z,37.20
2018-04-29T18:33:29.710Z,37.87
2018-04-29T18:35:56.192Z,39.90
2018-04-29T18:38:30.390Z,40.67
2018-04-29T18:40:56.827Z,37.90
2018-04-29T18:43:23.282Z,37.93
2018-04-29T18:45:50.516Z,38.73
2018-04-29T18:48:22.503Z,40.07
2018-04-29T18:50:49.849Z,38.13
2018-04-29T18:53:16.310Z,32.80
2018-04-29T18:55:42.937Z,24.90
2018-04-29T18:58:24.638Z,17.90
2018-04-29T19:00:51.111Z,20.93
2018-04-29T19:03:17.640Z,20.97
2018-04-29T19:05:46.127Z,17.87
2018-04-29T19:08:25.342Z,18.20
2018-04-29T19:10:51.886Z,19.87
2018-04-29T19:13:18.400Z,19.00
2018-04-29T19:15:45.033Z,20.90
2018-04-29T19:18:14.951Z,21.40
2018-04-29T19:20:41.539Z,23.27
2018-04-29T19:23:08.047Z,22.23
2018-04-29T19:25:34.712Z,27.13
2018-04-29T19:28:01.338Z,33.47
2018-04-29T19:30:27.993Z,29.70
2018-04-29T19:32:54.615Z,34.30
2018-04-29T19:35:21.347Z,31.67
2018-04-29T19:37:53.744Z,36.13
2018-04-29T19:40:20.535Z,35.53
2018-04-29T19:42:47.129Z,39.00
2018-04-29T19:45:13.862Z,37.47
2018-04-29T19:47:42.449Z,38.37
2018-04-29T19:50:09.177Z,35.07
2018-04-29T19:52:35.798Z,31.67
2018-04-29T19:55:02.476Z,36.07
2018-04-29T19:57:31.009Z,33.80
2018-04-29T19:59:57.833Z,32.00
2018-04-29T20:02:24.367Z,31.87
2018-04-29T20:04:51.241Z,38.50
2018-04-29T20:07:19.771Z,36.57
2018-04-29T20:09:46.388Z,39.37
2018-04-29T20:12:13.015Z,32.80
2018-04-29T20:14:39.627Z,33.37
2018-04-29T20:17:07.197Z,35.33
2018-04-29T20:19:33.712Z,33.67
2018-04-29T20:22:01.143Z,36.90
2018-04-29T20:24:28.304Z,37.47
2018-04-29T20:26:59.344Z,38.20
2018-04-29T20:29:26.677Z,41.03
2018-04-29T20:31:54.041Z,38.63
2018-04-29T20:34:20.766Z,39.67
2018-04-29T20:36:47.352Z,46.80
2018-04-29T20:39:13.967Z,39.30
2018-04-29T20:41:40.569Z,35.73
2018-04-29T20:44:07.119Z,33.67
2018-04-29T20:46:34.611Z,36.13
2018-04-29T20:49:01.247Z,39.87
2018-04-29T20:51:27.871Z,38.47
2018-04-29T20:53:55.541Z,34.67
2018-04-29T20:56:23.164Z,33.27
2018-04-29T20:58:52.250Z,32.57
2018-04-29T21:01:19.895Z,33.03
2018-04-29T21:03:46.756Z,35.67
2018-04-29T21:06:13.305Z,31.03
2018-04-29T21:08:46.429Z,27.20
2018-04-29T21:11:13.063Z,33.30
2018-04-29T21:13:40.466Z,29.00
2018-04-29T21:16:07.268Z,29.40
2018-04-29T21:18:34.677Z,33.90
2018-04-29T21:21:01.290Z,33.33
2018-04-29T21:23:28.245Z,33.27
2018-04-29T21:25:54.810Z,34.83
2018-04-29T21:28:25.706Z,30.73
2018-04-29T21:30:52.746Z,32.03
2018-04-29T21:33:19.313Z,36.97
2018-04-29T21:35:45.991Z,32.27
2018-04-29T21:38:17.536Z,40.97
2018-04-29T21:40:44.174Z,39.50
2018-04-29T21:43:10.891Z,39.27
2018-04-29T21:45:38.558Z,38.63
2018-04-29T21:48:05.609Z,37.60
2018-04-29T21:50:32.146Z,40.23
2018-04-29T21:52:59.193Z,40.20
2018-04-29T21:55:25.847Z,43.10
2018-04-29T21:57:52.621Z,42.07
2018-04-29T22:00:19.288Z,39.87
2018-04-29T22:02:45.863Z,39.87
2018-04-29T22:05:12.731Z,38.93
2018-04-29T22:07:42.853Z,43.20
2018-04-29T22:10:09.408Z,41.13
2018-04-29T22:12:35.978Z,42.03
2018-04-29T22:15:02.606Z,48.17
2018-04-29T22:17:29.349Z,37.50
2018-04-29T22:19:55.857Z,37.40
2018-04-29T22:22:22.477Z,34.90
2018-04-29T22:24:49.759Z,40.80
2018-04-29T22:27:23.329Z,41.00
2018-04-29T22:29:49.898Z,41.57
2018-04-29T22:32:16.449Z,39.13
2018-04-29T22:34:43.038Z,43.30
2018-04-29T22:37:10.666Z,44.03
2018-04-29T22:39:37.339Z,42.67
2018-04-29T22:42:04.723Z,41.53
2018-04-29T22:44:31.323Z,42.23
2018-04-29T22:46:59.014Z,41.27
2018-04-29T22:49:25.558Z,45.97
2018-04-29T22:51:52.198Z,51.73
2018-04-29T22:54:18.753Z,40.70
2018-04-29T22:56:45.323Z,47.37
2018-04-29T22:59:11.862Z,38.73
2018-04-29T23:01:38.363Z,43.33
2018-04-29T23:04:04.969Z,40.73
2018-04-29T23:06:31.613Z,44.00
2018-04-29T23:09:09.115Z,38.00
2018-04-29T23:11:35.789Z,44.20
2018-04-29T23:14:02.371Z,39.13
2018-04-29T23:16:28.900Z,39.70
2018-04-29T23:19:01.374Z,37.90
2018-04-29T23:21:27.947Z,44.17
2018-04-29T23:23:54.460Z,43.97
2018-04-29T23:26:21.011Z,48.70
2018-04-29T23:28:47.874Z,35.67
2018-04-29T23:31:14.401Z,45.33
2018-04-29T23:33:40.982Z,37.80
2018-04-29T23:36:07.515Z,42.97
2018-04-29T23:38:51.213Z,33.10
2018-04-29T23:41:17.863Z,36.17
2018-04-29T23:43:44.407Z,31.93
2018-04-29T23:46:10.990Z,33.67
2018-04-29T23:48:46.666Z,33.70
2018-04-29T23:51:13.285Z,37.47
2018-04-29T23:53:39.899Z,35.37
2018-04-29T23:56:07.209Z,41.00
2018-04-29T23:58:38.925Z,36.90
